sensor_id;sensor_type;location;lat;lon;timestamp;pressure;altitude;pressure_sealevel;temperature;humidity
65276;BME280;51875;49.994;14.052;2023-02-19T00:00:48;98385.38;;;9.14;100.00
65276;BME280;51875;49.994;14.052;2023-02-19T00:02:24;98377.81;;;9.02;100.00
65276;BME280;51875;49.994;14.052;2023-02-19T00:03:40;98374.03;;;8.78;100.00
65276;BME280;51875;49.994;14.052;2023-02-19T00:04:56;98376.38;;;8.88;100.00
65276;BME280;51875;49.994;14.052;2023-02-19T00:06:12;98380.63;;;8.94;100.00
65276;BME280;51875;49.994;14.052;2023-02-19T00:07:28;98382.03;;;8.70;100.00
65276;BME280;51875;49.994;14.052;2023-02-19T00:08:43;98378.78;;;8.57;100.00
65276;BME280;51875;49.994;14.052;2023-02-19T00:09:59;98377.06;;;8.57;100.00
65276;BME280;51875;49.994;14.052;2023-02-19T00:11:20;98368.47;;;8.52;100.00
65276;BME280;51875;49.994;14.052;2023-02-19T00:12:36;98367.63;;;8.50;100.00
65276;BME280;51875;49.994;14.052;2023-02-19T00:13:53;98375.03;;;8.26;100.00
65276;BME280;51875;49.994;14.052;2023-02-19T00:15:10;98369.75;;;8.29;100.00
65276;BME280;51875;49.994;14.052;2023-02-19T00:16:30;98374.34;;;8.16;100.00
65276;BME280;51875;49.994;14.052;2023-02-19T00:17:46;98369.72;;;8.31;100.00
65276;BME280;51875;49.994;14.052;2023-02-19T00:19:04;98370.25;;;8.03;100.00
65276;BME280;51875;49.994;14.052;2023-02-19T00:20:20;98367.59;;;8.06;100.00
65276;BME280;51875;49.994;14.052;2023-02-19T00:21:36;98370.88;;;8.17;100.00
65276;BME280;51875;49.994;14.052;2023-02-19T00:22:51;98376.09;;;8.17;100.00
65276;BME280;51875;49.994;14.052;2023-02-19T00:24:10;98371.94;;;8.05;100.00
65276;BME280;51875;49.994;14.052;2023-02-19T00:25:26;98380.28;;;8.23;100.00
65276;BME280;51875;49.994;14.052;2023-02-19T00:26:42;98372.69;;;8.12;100.00
65276;BME280;51875;49.994;14.052;2023-02-19T00:27:59;98374.59;;;8.04;100.00
65276;BME280;51875;49.994;14.052;2023-02-19T00:29:17;98369.09;;;8.18;100.00
65276;BME280;51875;49.994;14.052;2023-02-19T00:30:33;98374.69;;;7.99;100.00
65276;BME280;51875;49.994;14.052;2023-02-19T00:31:48;98378.22;;;7.95;100.00
65276;BME280;51875;49.994;14.052;2023-02-19T00:33:04;98377.00;;;8.13;100.00
65276;BME280;51875;49.994;14.052;2023-02-19T00:34:20;98371.63;;;8.23;100.00
65276;BME280;51875;49.994;14.052;2023-02-19T00:35:36;98364.38;;;8.39;100.00
65276;BME280;51875;49.994;14.052;2023-02-19T00:36:51;98366.66;;;8.10;100.00
65276;BME280;51875;49.994;14.052;2023-02-19T00:38:07;98364.69;;;8.22;100.00
65276;BME280;51875;49.994;14.052;2023-02-19T00:39:23;98364.94;;;8.08;100.00
65276;BME280;51875;49.994;14.052;2023-02-19T00:40:38;98363.91;;;8.16;100.00
65276;BME280;51875;49.994;14.052;2023-02-19T00:41:54;98355.16;;;8.19;100.00
65276;BME280;51875;49.994;14.052;2023-02-19T00:43:10;98355.69;;;8.37;100.00
65276;BME280;51875;49.994;14.052;2023-02-19T00:44:25;98352.19;;;8.38;100.00
65276;BME280;51875;49.994;14.052;2023-02-19T00:45:41;98353.84;;;8.42;100.00
65276;BME280;51875;49.994;14.052;2023-02-19T00:46:56;98360.28;;;8.25;100.00
65276;BME280;51875;49.994;14.052;2023-02-19T00:48:12;98360.06;;;8.34;100.00
65276;BME280;51875;49.994;14.052;2023-02-19T00:49:28;98351.53;;;8.28;100.00
65276;BME280;51875;49.994;14.052;2023-02-19T00:50:43;98353.94;;;8.39;100.00
65276;BME280;51875;49.994;14.052;2023-02-19T00:51:59;98352.63;;;8.16;100.00
65276;BME280;51875;49.994;14.052;2023-02-19T00:53:14;98361.19;;;8.24;100.00
65276;BME280;51875;49.994;14.052;2023-02-19T00:54:30;98349.56;;;8.38;100.00
65276;BME280;51875;49.994;14.052;2023-02-19T00:55:46;98356.50;;;7.96;100.00
65276;BME280;51875;49.994;14.052;2023-02-19T00:57:01;98363.72;;;8.26;100.00
65276;BME280;51875;49.994;14.052;2023-02-19T00:58:17;98359.16;;;8.37;100.00
65276;BME280;51875;49.994;14.052;2023-02-19T00:59:32;98360.94;;;8.35;100.00
65276;BME280;51875;49.994;14.052;2023-02-19T01:00:48;98365.34;;;8.33;100.00
65276;BME280;51875;49.994;14.052;2023-02-19T01:02:04;98364.66;;;8.23;100.00
65276;BME280;51875;49.994;14.052;2023-02-19T01:03:20;98356.66;;;8.32;100.00
65276;BME280;51875;49.994;14.052;2023-02-19T01:04:36;98356.66;;;8.32;100.00
65276;BME280;51875;49.994;14.052;2023-02-19T01:05:52;98362.56;;;7.95;100.00
65276;BME280;51875;49.994;14.052;2023-02-19T01:07:08;98356.97;;;8.15;100.00
65276;BME280;51875;49.994;14.052;2023-02-19T01:08:24;98350.25;;;8.05;100.00
65276;BME280;51875;49.994;14.052;2023-02-19T01:09:40;98349.00;;;8.23;100.00
65276;BME280;51875;49.994;14.052;2023-02-19T01:10:56;98341.25;;;8.20;100.00
65276;BME280;51875;49.994;14.052;2023-02-19T01:12:12;98341.09;;;8.28;100.00
65276;BME280;51875;49.994;14.052;2023-02-19T01:13:27;98340.44;;;8.16;100.00
65276;BME280;51875;49.994;14.052;2023-02-19T01:14:43;98335.78;;;8.31;100.00
65276;BME280;51875;49.994;14.052;2023-02-19T01:16:25;98337.63;;;7.82;100.00
65276;BME280;51875;49.994;14.052;2023-02-19T01:17:42;98337.47;;;7.42;100.00
65276;BME280;51875;49.994;14.052;2023-02-19T01:18:57;98339.88;;;7.52;100.00
65276;BME280;51875;49.994;14.052;2023-02-19T01:20:13;98331.78;;;7.67;100.00
65276;BME280;51875;49.994;14.052;2023-02-19T01:21:30;98328.44;;;8.09;100.00
65276;BME280;51875;49.994;14.052;2023-02-19T01:22:45;98317.81;;;8.18;100.00
65276;BME280;51875;49.994;14.052;2023-02-19T01:24:01;98314.50;;;8.10;100.00
65276;BME280;51875;49.994;14.052;2023-02-19T01:25:16;98315.91;;;7.83;100.00
65276;BME280;51875;49.994;14.052;2023-02-19T01:26:32;98313.44;;;8.19;100.00
65276;BME280;51875;49.994;14.052;2023-02-19T01:27:48;98307.72;;;8.01;100.00
65276;BME280;51875;49.994;14.052;2023-02-19T01:29:04;98312.34;;;7.87;100.00
65276;BME280;51875;49.994;14.052;2023-02-19T01:30:19;98307.44;;;7.68;100.00
65276;BME280;51875;49.994;14.052;2023-02-19T01:31:35;98304.00;;;7.69;100.00
65276;BME280;51875;49.994;14.052;2023-02-19T01:32:51;98292.56;;;7.75;100.00
65276;BME280;51875;49.994;14.052;2023-02-19T01:34:09;98298.72;;;8.16;100.00
65276;BME280;51875;49.994;14.052;2023-02-19T01:35:25;98305.84;;;8.08;100.00
65276;BME280;51875;49.994;14.052;2023-02-19T01:36:40;98303.06;;;8.17;100.00
65276;BME280;51875;49.994;14.052;2023-02-19T01:37:57;98297.28;;;8.01;100.00
65276;BME280;51875;49.994;14.052;2023-02-19T01:39:12;98305.03;;;8.06;100.00
65276;BME280;51875;49.994;14.052;2023-02-19T01:40:28;98300.59;;;8.10;100.00
65276;BME280;51875;49.994;14.052;2023-02-19T01:41:44;98302.28;;;8.12;100.00
65276;BME280;51875;49.994;14.052;2023-02-19T01:42:59;98301.84;;;8.34;100.00
65276;BME280;51875;49.994;14.052;2023-02-19T01:45:34;98296.16;;;8.15;100.00
65276;BME280;51875;49.994;14.052;2023-02-19T01:46:50;98299.00;;;8.02;100.00
65276;BME280;51875;49.994;14.052;2023-02-19T01:49:29;98286.47;;;8.62;100.00
65276;BME280;51875;49.994;14.052;2023-02-19T01:50:49;98288.19;;;8.64;100.00
65276;BME280;51875;49.994;14.052;2023-02-19T01:52:12;98288.00;;;8.71;100.00
65276;BME280;51875;49.994;14.052;2023-02-19T01:53:33;98289.56;;;8.80;100.00
65276;BME280;51875;49.994;14.052;2023-02-19T01:54:50;98286.06;;;8.81;100.00
65276;BME280;51875;49.994;14.052;2023-02-19T01:56:07;98285.25;;;8.78;100.00
65276;BME280;51875;49.994;14.052;2023-02-19T01:57:27;98278.72;;;8.59;100.00
65276;BME280;51875;49.994;14.052;2023-02-19T01:58:43;98280.59;;;8.53;100.00
65276;BME280;51875;49.994;14.052;2023-02-19T02:00:06;98270.59;;;8.72;100.00
65276;BME280;51875;49.994;14.052;2023-02-19T02:01:23;98276.38;;;8.85;100.00
65276;BME280;51875;49.994;14.052;2023-02-19T02:02:41;98275.38;;;8.90;100.00
65276;BME280;51875;49.994;14.052;2023-02-19T02:03:57;98265.75;;;8.93;100.00
65276;BME280;51875;49.994;14.052;2023-02-19T02:05:24;98256.88;;;9.00;100.00
65276;BME280;51875;49.994;14.052;2023-02-19T02:06:51;98266.53;;;8.96;100.00
65276;BME280;51875;49.994;14.052;2023-02-19T02:08:07;98270.06;;;8.94;100.00
65276;BME280;51875;49.994;14.052;2023-02-19T02:09:42;98267.00;;;8.78;100.00
65276;BME280;51875;49.994;14.052;2023-02-19T02:11:16;98261.91;;;8.71;100.00
65276;BME280;51875;49.994;14.052;2023-02-19T02:12:32;98258.28;;;8.79;100.00
65276;BME280;51875;49.994;14.052;2023-02-19T02:13:48;98256.50;;;8.79;100.00
65276;BME280;51875;49.994;14.052;2023-02-19T02:15:05;98249.44;;;8.84;100.00
65276;BME280;51875;49.994;14.052;2023-02-19T02:16:53;98246.75;;;8.86;100.00
65276;BME280;51875;49.994;14.052;2023-02-19T02:18:27;98240.53;;;8.92;100.00
65276;BME280;51875;49.994;14.052;2023-02-19T02:20:21;98230.81;;;8.98;100.00
65276;BME280;51875;49.994;14.052;2023-02-19T02:21:32;98223.06;;;8.94;100.00
65276;BME280;51875;49.994;14.052;2023-02-19T02:26:07;98214.72;;;8.81;100.00
65276;BME280;51875;49.994;14.052;2023-02-19T02:32:06;98197.44;;;8.75;100.00
65276;BME280;51875;49.994;14.052;2023-02-19T02:33:43;98190.81;;;8.96;100.00
65276;BME280;51875;49.994;14.052;2023-02-19T02:35:09;98184.81;;;8.93;100.00
65276;BME280;51875;49.994;14.052;2023-02-19T02:36:43;98178.06;;;8.85;100.00
65276;BME280;51875;49.994;14.052;2023-02-19T02:38:03;98175.94;;;9.00;100.00
65276;BME280;51875;49.994;14.052;2023-02-19T02:39:24;98172.44;;;9.01;100.00
65276;BME280;51875;49.994;14.052;2023-02-19T02:40:42;98174.94;;;9.04;100.00
65276;BME280;51875;49.994;14.052;2023-02-19T02:41:59;98173.44;;;8.95;100.00
65276;BME280;51875;49.994;14.052;2023-02-19T02:43:33;98175.44;;;9.18;100.00
65276;BME280;51875;49.994;14.052;2023-02-19T02:44:49;98163.34;;;9.16;100.00
65276;BME280;51875;49.994;14.052;2023-02-19T02:46:28;98154.13;;;9.02;100.00
65276;BME280;51875;49.994;14.052;2023-02-19T02:47:52;98161.69;;;9.12;100.00
65276;BME280;51875;49.994;14.052;2023-02-19T02:49:15;98163.59;;;9.05;100.00
65276;BME280;51875;49.994;14.052;2023-02-19T02:50:37;98163.56;;;9.08;100.00
65276;BME280;51875;49.994;14.052;2023-02-19T02:51:55;98158.06;;;9.17;100.00
65276;BME280;51875;49.994;14.052;2023-02-19T02:53:19;98171.25;;;9.13;100.00
65276;BME280;51875;49.994;14.052;2023-02-19T02:54:55;98165.41;;;9.03;100.00
65276;BME280;51875;49.994;14.052;2023-02-19T02:56:17;98167.69;;;9.15;100.00
65276;BME280;51875;49.994;14.052;2023-02-19T02:57:34;98165.19;;;9.12;100.00
65276;BME280;51875;49.994;14.052;2023-02-19T02:58:51;98161.16;;;9.32;100.00
65276;BME280;51875;49.994;14.052;2023-02-19T03:00:08;98162.81;;;9.36;100.00
65276;BME280;51875;49.994;14.052;2023-02-19T03:01:34;98157.84;;;9.25;100.00
65276;BME280;51875;49.994;14.052;2023-02-19T03:03:10;98151.72;;;9.26;100.00
65276;BME280;51875;49.994;14.052;2023-02-19T03:06:20;98155.91;;;9.33;100.00
65276;BME280;51875;49.994;14.052;2023-02-19T03:09:21;98131.47;;;9.36;100.00
65276;BME280;51875;49.994;14.052;2023-02-19T03:10:50;98130.56;;;9.37;100.00
65276;BME280;51875;49.994;14.052;2023-02-19T03:12:13;98126.34;;;9.31;100.00
65276;BME280;51875;49.994;14.052;2023-02-19T03:13:51;98127.84;;;9.40;100.00
65276;BME280;51875;49.994;14.052;2023-02-19T03:15:31;98117.63;;;9.32;100.00
65276;BME280;51875;49.994;14.052;2023-02-19T03:17:14;98114.72;;;9.42;100.00
65276;BME280;51875;49.994;14.052;2023-02-19T03:18:53;98111.03;;;9.49;100.00
65276;BME280;51875;49.994;14.052;2023-02-19T03:20:29;98118.56;;;9.28;100.00
65276;BME280;51875;49.994;14.052;2023-02-19T03:23:08;98118.22;;;9.42;100.00
65276;BME280;51875;49.994;14.052;2023-02-19T03:24:31;98122.53;;;9.43;100.00
65276;BME280;51875;49.994;14.052;2023-02-19T03:26:09;98109.34;;;9.48;100.00
65276;BME280;51875;49.994;14.052;2023-02-19T03:27:27;98100.09;;;9.36;100.00
65276;BME280;51875;49.994;14.052;2023-02-19T03:28:46;98093.69;;;9.46;100.00
65276;BME280;51875;49.994;14.052;2023-02-19T03:30:28;98088.34;;;9.51;100.00
65276;BME280;51875;49.994;14.052;2023-02-19T03:31:46;98096.69;;;9.64;100.00
65276;BME280;51875;49.994;14.052;2023-02-19T03:34:51;98094.06;;;9.64;100.00
65276;BME280;51875;49.994;14.052;2023-02-19T03:36:11;98095.94;;;9.59;100.00
65276;BME280;51875;49.994;14.052;2023-02-19T03:37:38;98104.59;;;9.61;100.00
65276;BME280;51875;49.994;14.052;2023-02-19T03:38:58;98102.97;;;9.27;100.00
65276;BME280;51875;49.994;14.052;2023-02-19T03:40:16;98103.25;;;9.47;100.00
65276;BME280;51875;49.994;14.052;2023-02-19T03:41:37;98104.44;;;9.37;100.00
65276;BME280;51875;49.994;14.052;2023-02-19T03:43:15;98102.19;;;9.23;100.00
65276;BME280;51875;49.994;14.052;2023-02-19T03:53:10;98094.31;;;9.25;100.00
65276;BME280;51875;49.994;14.052;2023-02-19T03:54:31;98080.28;;;9.27;100.00
65276;BME280;51875;49.994;14.052;2023-02-19T03:57:22;98073.13;;;9.34;100.00
65276;BME280;51875;49.994;14.052;2023-02-19T03:58:46;98078.38;;;9.34;100.00
65276;BME280;51875;49.994;14.052;2023-02-19T04:00:16;98074.22;;;9.27;100.00
65276;BME280;51875;49.994;14.052;2023-02-19T04:01:40;98078.69;;;9.23;100.00
65276;BME280;51875;49.994;14.052;2023-02-19T04:03:10;98068.88;;;9.31;100.00
65276;BME280;51875;49.994;14.052;2023-02-19T04:04:36;98066.88;;;9.40;100.00
65276;BME280;51875;49.994;14.052;2023-02-19T04:05:54;98078.44;;;9.32;100.00
65276;BME280;51875;49.994;14.052;2023-02-19T04:07:12;98083.47;;;9.39;100.00
65276;BME280;51875;49.994;14.052;2023-02-19T04:08:29;98076.50;;;9.39;100.00
65276;BME280;51875;49.994;14.052;2023-02-19T04:09:48;98082.53;;;9.41;100.00
65276;BME280;51875;49.994;14.052;2023-02-19T04:11:07;98085.59;;;9.26;100.00
65276;BME280;51875;49.994;14.052;2023-02-19T04:12:24;98080.91;;;9.37;100.00
65276;BME280;51875;49.994;14.052;2023-02-19T04:14:00;98083.47;;;9.39;100.00
65276;BME280;51875;49.994;14.052;2023-02-19T04:15:21;98071.56;;;9.28;100.00
65276;BME280;51875;49.994;14.052;2023-02-19T04:16:40;98074.16;;;9.28;100.00
65276;BME280;51875;49.994;14.052;2023-02-19T04:18:03;98074.34;;;9.22;100.00
65276;BME280;51875;49.994;14.052;2023-02-19T04:19:21;98080.00;;;9.38;100.00
65276;BME280;51875;49.994;14.052;2023-02-19T04:20:41;98079.94;;;9.40;100.00
65276;BME280;51875;49.994;14.052;2023-02-19T04:21:59;98071.75;;;9.22;100.00
65276;BME280;51875;49.994;14.052;2023-02-19T04:23:19;98084.47;;;9.35;100.00
65276;BME280;51875;49.994;14.052;2023-02-19T04:24:45;98082.34;;;9.47;100.00
65276;BME280;51875;49.994;14.052;2023-02-19T04:26:03;98077.19;;;9.44;100.00
65276;BME280;51875;49.994;14.052;2023-02-19T04:27:18;98068.53;;;9.44;100.00
65276;BME280;51875;49.994;14.052;2023-02-19T04:28:34;98075.72;;;9.36;100.00
65276;BME280;51875;49.994;14.052;2023-02-19T04:29:50;98074.72;;;9.40;100.00
65276;BME280;51875;49.994;14.052;2023-02-19T04:31:05;98076.53;;;9.38;100.00
65276;BME280;51875;49.994;14.052;2023-02-19T04:32:21;98070.16;;;9.46;100.00
65276;BME280;51875;49.994;14.052;2023-02-19T04:33:37;98068.38;;;9.49;100.00
65276;BME280;51875;49.994;14.052;2023-02-19T04:34:53;98064.22;;;9.41;100.00
65276;BME280;51875;49.994;14.052;2023-02-19T04:36:08;98061.72;;;9.38;100.00
65276;BME280;51875;49.994;14.052;2023-02-19T04:37:25;98050.06;;;9.49;100.00
65276;BME280;51875;49.994;14.052;2023-02-19T04:38:41;98060.53;;;9.49;100.00
65276;BME280;51875;49.994;14.052;2023-02-19T04:39:56;98051.44;;;9.32;100.00
65276;BME280;51875;49.994;14.052;2023-02-19T04:41:12;98051.03;;;9.46;100.00
65276;BME280;51875;49.994;14.052;2023-02-19T04:42:27;98053.75;;;9.43;100.00
65276;BME280;51875;49.994;14.052;2023-02-19T04:43:43;98052.19;;;9.36;100.00
65276;BME280;51875;49.994;14.052;2023-02-19T04:44:58;98056.41;;;9.41;100.00
65276;BME280;51875;49.994;14.052;2023-02-19T04:46:14;98053.13;;;9.33;100.00
65276;BME280;51875;49.994;14.052;2023-02-19T04:47:33;98056.19;;;9.47;100.00
65276;BME280;51875;49.994;14.052;2023-02-19T04:48:48;98058.91;;;9.44;100.00
65276;BME280;51875;49.994;14.052;2023-02-19T04:50:04;98052.09;;;9.39;100.00
65276;BME280;51875;49.994;14.052;2023-02-19T04:51:20;98048.00;;;9.30;100.00
65276;BME280;51875;49.994;14.052;2023-02-19T04:52:35;98054.22;;;9.26;100.00
65276;BME280;51875;49.994;14.052;2023-02-19T04:53:51;98050.28;;;9.42;100.00
65276;BME280;51875;49.994;14.052;2023-02-19T04:55:08;98045.53;;;9.25;100.00
65276;BME280;51875;49.994;14.052;2023-02-19T04:56:23;98054.72;;;9.39;100.00
65276;BME280;51875;49.994;14.052;2023-02-19T04:57:39;98054.94;;;9.31;100.00
65276;BME280;51875;49.994;14.052;2023-02-19T04:58:55;98053.88;;;9.38;100.00
65276;BME280;51875;49.994;14.052;2023-02-19T05:00:12;98059.81;;;9.43;100.00
65276;BME280;51875;49.994;14.052;2023-02-19T05:01:28;98049.56;;;9.37;100.00
65276;BME280;51875;49.994;14.052;2023-02-19T05:02:43;98053.91;;;9.37;100.00
65276;BME280;51875;49.994;14.052;2023-02-19T05:03:59;98054.47;;;9.48;100.00
65276;BME280;51875;49.994;14.052;2023-02-19T05:05:15;98061.34;;;9.51;100.00
65276;BME280;51875;49.994;14.052;2023-02-19T05:06:30;98047.75;;;9.39;100.00
65276;BME280;51875;49.994;14.052;2023-02-19T05:07:46;98046.63;;;9.48;100.00
65276;BME280;51875;49.994;14.052;2023-02-19T05:09:02;98046.66;;;9.46;100.00
65276;BME280;51875;49.994;14.052;2023-02-19T05:10:17;98049.25;;;9.46;100.00
65276;BME280;51875;49.994;14.052;2023-02-19T05:11:33;98048.38;;;9.47;100.00
65276;BME280;51875;49.994;14.052;2023-02-19T05:12:49;98050.50;;;9.63;100.00
65276;BME280;51875;49.994;14.052;2023-02-19T05:14:04;98052.94;;;9.69;100.00
65276;BME280;51875;49.994;14.052;2023-02-19T05:15:20;98042.78;;;9.60;100.00
65276;BME280;51875;49.994;14.052;2023-02-19T05:16:36;98061.44;;;9.47;100.00
65276;BME280;51875;49.994;14.052;2023-02-19T05:17:51;98047.97;;;9.61;100.00
65276;BME280;51875;49.994;14.052;2023-02-19T05:19:10;98047.28;;;9.55;100.00
65276;BME280;51875;49.994;14.052;2023-02-19T05:20:25;98043.81;;;9.54;100.00
65276;BME280;51875;49.994;14.052;2023-02-19T05:21:41;98057.50;;;9.63;100.00
65276;BME280;51875;49.994;14.052;2023-02-19T05:22:57;98048.00;;;9.60;100.00
65276;BME280;51875;49.994;14.052;2023-02-19T05:24:12;98040.63;;;9.44;100.00
65276;BME280;51875;49.994;14.052;2023-02-19T05:25:28;98041.25;;;9.53;100.00
65276;BME280;51875;49.994;14.052;2023-02-19T05:26:43;98043.88;;;9.53;100.00
65276;BME280;51875;49.994;14.052;2023-02-19T05:27:59;98041.97;;;9.58;100.00
65276;BME280;51875;49.994;14.052;2023-02-19T05:29:31;98048.75;;;9.64;100.00
65276;BME280;51875;49.994;14.052;2023-02-19T05:30:49;98045.69;;;9.51;100.00
65276;BME280;51875;49.994;14.052;2023-02-19T05:32:05;98043.41;;;9.68;100.00
65276;BME280;51875;49.994;14.052;2023-02-19T05:33:22;98049.53;;;9.67;100.00
65276;BME280;51875;49.994;14.052;2023-02-19T05:34:38;98043.94;;;9.80;100.00
65276;BME280;51875;49.994;14.052;2023-02-19T05:35:54;98036.94;;;9.52;100.00
65276;BME280;51875;49.994;14.052;2023-02-19T05:37:10;98041.69;;;9.67;100.00
65276;BME280;51875;49.994;14.052;2023-02-19T05:38:25;98051.34;;;9.65;100.00
65276;BME280;51875;49.994;14.052;2023-02-19T05:39:41;98042.78;;;9.60;100.00
65276;BME280;51875;49.994;14.052;2023-02-19T05:41:15;98048.38;;;9.47;100.00
65276;BME280;51875;49.994;14.052;2023-02-19T05:42:31;98035.84;;;9.59;100.00
65276;BME280;51875;49.994;14.052;2023-02-19T05:43:48;98039.81;;;9.42;100.00
65276;BME280;51875;49.994;14.052;2023-02-19T05:45:03;98042.22;;;9.49;100.00
65276;BME280;51875;49.994;14.052;2023-02-19T05:46:22;98040.75;;;9.40;100.00
65276;BME280;51875;49.994;14.052;2023-02-19T05:47:38;98050.75;;;9.55;100.00
65276;BME280;51875;49.994;14.052;2023-02-19T05:48:54;98049.03;;;9.54;100.00
65276;BME280;51875;49.994;14.052;2023-02-19T05:50:10;98044.56;;;9.58;100.00
65276;BME280;51875;49.994;14.052;2023-02-19T05:51:26;98052.28;;;9.63;100.00
65276;BME280;51875;49.994;14.052;2023-02-19T05:52:41;98057.53;;;9.61;100.00
65276;BME280;51875;49.994;14.052;2023-02-19T05:53:58;98051.47;;;9.60;100.00
65276;BME280;51875;49.994;14.052;2023-02-19T05:55:14;98058.97;;;9.43;100.00
65276;BME280;51875;49.994;14.052;2023-02-19T05:56:37;98055.38;;;9.47;100.00
65276;BME280;51875;49.994;14.052;2023-02-19T05:57:56;98046.75;;;9.43;100.00
65276;BME280;51875;49.994;14.052;2023-02-19T05:59:17;98058.41;;;9.61;100.00
65276;BME280;51875;49.994;14.052;2023-02-19T06:00:33;98058.59;;;9.55;100.00
65276;BME280;51875;49.994;14.052;2023-02-19T06:01:50;98060.16;;;9.61;100.00
65276;BME280;51875;49.994;14.052;2023-02-19T06:03:07;98052.63;;;9.52;100.00
65276;BME280;51875;49.994;14.052;2023-02-19T06:04:22;98075.25;;;9.51;100.00
65276;BME280;51875;49.994;14.052;2023-02-19T06:05:40;98056.84;;;9.56;100.00
65276;BME280;51875;49.994;14.052;2023-02-19T06:06:56;98059.44;;;9.56;100.00
65276;BME280;51875;49.994;14.052;2023-02-19T06:08:13;98062.88;;;9.58;100.00
65276;BME280;51875;49.994;14.052;2023-02-19T06:09:29;98064.47;;;9.62;100.00
65276;BME280;51875;49.994;14.052;2023-02-19T06:10:44;98061.59;;;9.71;100.00
65276;BME280;51875;49.994;14.052;2023-02-19T06:12:00;98055.16;;;9.53;100.00
65276;BME280;51875;49.994;14.052;2023-02-19T06:13:15;98050.97;;;9.47;100.00
65276;BME280;51875;49.994;14.052;2023-02-19T06:14:31;98049.81;;;9.58;100.00
65276;BME280;51875;49.994;14.052;2023-02-19T06:15:47;98050.97;;;9.47;100.00
65276;BME280;51875;49.994;14.052;2023-02-19T06:17:02;98051.66;;;9.54;100.00
65276;BME280;51875;49.994;14.052;2023-02-19T06:18:18;98047.09;;;9.61;100.00
65276;BME280;51875;49.994;14.052;2023-02-19T06:19:33;98047.28;;;9.55;100.00
65276;BME280;51875;49.994;14.052;2023-02-19T06:20:49;98055.00;;;9.59;100.00
65276;BME280;51875;49.994;14.052;2023-02-19T06:22:05;98053.78;;;9.41;100.00
65276;BME280;51875;49.994;14.052;2023-02-19T06:23:20;98060.22;;;9.59;100.00
65276;BME280;51875;49.994;14.052;2023-02-19T06:24:36;98059.56;;;9.53;100.00
65276;BME280;51875;49.994;14.052;2023-02-19T06:25:51;98049.47;;;9.40;100.00
65276;BME280;51875;49.994;14.052;2023-02-19T06:27:08;98053.22;;;9.60;100.00
65276;BME280;51875;49.994;14.052;2023-02-19T06:28:24;98054.88;;;9.64;100.00
65276;BME280;51875;49.994;14.052;2023-02-19T06:29:40;98047.06;;;9.32;100.00
65276;BME280;51875;49.994;14.052;2023-02-19T06:30:57;98049.72;;;9.31;100.00
65276;BME280;51875;49.994;14.052;2023-02-19T06:32:13;98053.78;;;9.41;100.00
65276;BME280;51875;49.994;14.052;2023-02-19T06:33:29;98069.91;;;9.56;100.00
65276;BME280;51875;49.994;14.052;2023-02-19T06:34:44;98064.59;;;9.59;100.00
65276;BME280;51875;49.994;14.052;2023-02-19T06:36:02;98065.63;;;9.53;100.00
65276;BME280;51875;49.994;14.052;2023-02-19T06:37:18;98070.22;;;9.75;100.00
65276;BME280;51875;49.994;14.052;2023-02-19T06:38:34;98079.69;;;9.78;100.00
65276;BME280;51875;49.994;14.052;2023-02-19T06:39:49;98071.59;;;9.58;100.00
65276;BME280;51875;49.994;14.052;2023-02-19T06:41:06;98070.91;;;9.52;100.00
65276;BME280;51875;49.994;14.052;2023-02-19T06:42:22;98064.69;;;9.56;100.00
65276;BME280;51875;49.994;14.052;2023-02-19T06:43:38;98068.88;;;9.61;100.00
65276;BME280;51875;49.994;14.052;2023-02-19T06:44:54;98081.72;;;9.69;100.00
65276;BME280;51875;49.994;14.052;2023-02-19T06:46:11;98071.84;;;9.78;100.00
65276;BME280;51875;49.994;14.052;2023-02-19T06:47:33;98078.16;;;9.72;100.00
65276;BME280;51875;49.994;14.052;2023-02-19T06:48:48;98074.28;;;9.84;100.00
65276;BME280;51875;49.994;14.052;2023-02-19T06:50:04;98071.00;;;9.77;100.00
65276;BME280;51875;49.994;14.052;2023-02-19T06:51:20;98073.25;;;9.89;100.00
65276;BME280;51875;49.994;14.052;2023-02-19T06:52:41;98075.88;;;9.89;100.00
65276;BME280;51875;49.994;14.052;2023-02-19T06:53:59;98079.78;;;9.74;100.00
65276;BME280;51875;49.994;14.052;2023-02-19T06:55:17;98083.72;;;9.89;100.00
65276;BME280;51875;49.994;14.052;2023-02-19T06:56:33;98087.13;;;9.92;100.00
65276;BME280;51875;49.994;14.052;2023-02-19T06:57:49;98085.97;;;10.00;100.00
65276;BME280;51875;49.994;14.052;2023-02-19T06:59:08;98078.28;;;9.96;100.00
65276;BME280;51875;49.994;14.052;2023-02-19T07:00:24;98076.56;;;9.95;100.00
65276;BME280;51875;49.994;14.052;2023-02-19T07:01:40;98079.16;;;9.96;100.00
65276;BME280;51875;49.994;14.052;2023-02-19T07:02:56;98081.94;;;9.90;100.00
65276;BME280;51875;49.994;14.052;2023-02-19T07:04:11;98082.94;;;9.86;100.00
65276;BME280;51875;49.994;14.052;2023-02-19T07:05:27;98093.94;;;9.97;100.00
65276;BME280;51875;49.994;14.052;2023-02-19T07:06:43;98111.47;;;9.94;100.00
65276;BME280;51875;49.994;14.052;2023-02-19T07:07:59;98096.31;;;10.05;100.00
65276;BME280;51875;49.994;14.052;2023-02-19T07:09:14;98091.41;;;9.94;100.00
65276;BME280;51875;49.994;14.052;2023-02-19T07:10:30;98093.97;;;9.96;100.00
65276;BME280;51875;49.994;14.052;2023-02-19T07:11:46;98101.81;;;9.96;100.00
65276;BME280;51875;49.994;14.052;2023-02-19T07:13:01;98095.59;;;10.00;100.00
65276;BME280;51875;49.994;14.052;2023-02-19T07:14:17;98111.19;;;10.03;100.00
65276;BME280;51875;49.994;14.052;2023-02-19T07:15:33;98124.94;;;10.10;100.00
65276;BME280;51875;49.994;14.052;2023-02-19T07:16:48;98107.00;;;9.97;100.00
65276;BME280;51875;49.994;14.052;2023-02-19T07:18:04;98107.41;;;10.13;100.00
65276;BME280;51875;49.994;14.052;2023-02-19T07:19:22;98111.75;;;10.13;100.00